Mura (Bages)





Hora UTC 16:25
Temperatura 17.1 ºC
Humitat 53.0 %
Pressió 1004.6 hPa
Pluja 0.0 mm
Velocitat vent 6.4 km/h
Direcció vent

Dades diàries 2024-04-16



Hora UTC (hivern +1h; estiu +2h)
Temperatura (ºC) Humitat (%) Pressió (hPa) Velocitat vent (km/h) Precipitació (mm)
Hora UTC Aire Humitat Pressió Vel. Dir. Vel. Max Dir. Intent. màx 5 min.
00:05 10.5 75.0 1010.7 0.0 0.0 0.0
00:15 10.0 77.0 1010.3 0.0 0.0 0.0
00:25 9.8 77.0 1010.4 0.0 0.0 0.0
00:35 9.6 79.0 1010.4 0.0 0.0 0.0
00:45 9.4 79.0 1010.2 0.0 0.0 0.0
00:55 9.2 81.0 1010.2 0.0 0.0 0.0
01:05 9.1 81.0 1010.2 0.0 0.0 0.0
01:15 8.9 83.0 1009.9 0.0 0.0 0.0
01:25 8.6 83.0 1009.7 0.0 0.0 0.0
01:35 8.4 83.0 1009.7 0.0 0.0 0.0
01:45 8.4 84.0 1009.7 0.0 0.0 0.0
01:55 8.2 85.0 1009.6 0.0 0.0 0.0
02:05 8.0 85.0 1009.6 0.0 0.0 0.0
02:15 7.9 85.0 1009.6 0.0 0.0 0.0
02:25 7.7 86.0 1009.6 0.0 0.0 0.0
02:35 7.7 86.0 1009.6 0.0 0.0 0.0
02:45 7.6 86.0 1009.4 0.0 0.0 0.0
02:55 7.3 86.0 1009.3 0.0 0.0 0.0
03:05 7.2 86.0 1009.3 0.0 0.0 0.0
03:15 7.2 87.0 1009.3 0.0 0.0 0.0
03:25 6.9 86.0 1009.3 0.0 0.0 0.0
03:35 6.8 86.0 1009.3 0.0 0.0 0.0
03:45 6.8 86.0 1009.3 0.0 0.0 0.0
03:55 6.7 85.0 1009.4 0.0 0.0 0.0
04:05 6.5 85.0 1009.4 0.0 0.0 0.0
04:15 6.4 85.0 1009.1 0.0 0.0 0.0
04:25 6.5 85.0 1009.1 0.0 0.0 0.0
04:35 6.8 84.0 1009.1 0.0 0.0 0.0
04:45 7.3 83.0 1009.1 0.0 0.0 0.0
04:55 7.7 82.0 1008.7 0.0 0.0 0.0
05:05 8.3 78.0 1008.7 0.0 0.0 0.0
05:15 8.8 76.0 1009.2 0.0 0.0 0.0
05:25 9.1 74.0 1009.2 0.0 0.0 0.0
05:35 9.3 71.0 1009.2 0.0 8.0 0.0
05:45 9.3 72.0 1009.2 0.0 8.0 0.0
05:55 9.2 72.0 1009.2 0.0 8.0 0.0
06:05 9.1 72.0 1009.2 0.0 8.0 0.0
06:15 9.0 73.0 1008.8 0.0 8.0 0.0
06:25 9.1 73.0 1009.1 0.0 8.0 0.0
06:35 9.4 72.0 1009.1 0.0 8.0 0.0
06:45 10.1 69.0 1009.1 0.0 8.0 0.0
06:55 10.2 68.0 1008.9 0.0 8.0 0.0
07:05 10.6 67.0 1008.9 0.0 8.0 0.0
07:15 10.4 67.0 1008.8 0.0 8.0 0.0
07:25 10.4 67.0 1008.6 0.0 8.0 0.0
07:35 10.7 68.0 1008.6 0.0 8.0 0.0
07:45 11.2 65.0 1008.6 0.0 8.0 0.0
07:55 11.2 66.0 1008.7 0.0 8.0 0.0
08:05 11.4 65.0 1008.7 0.0 8.0 0.0
08:15 11.5 65.0 1008.6 0.0 8.0 0.0
08:25 11.6 65.0 1008.7 0.0 8.0 0.0
08:35 11.8 65.0 1008.7 0.0 8.0 0.0
08:45 12.1 63.0 1008.7 0.0 8.0 0.0
08:55 12.4 63.0 1008.6 0.0 8.0 0.0
09:05 12.6 62.0 1008.6 0.0 8.0 0.0
09:15 13.2 61.0 1008.6 0.0 9.7 0.0
09:25 13.7 60.0 1008.4 1.6 12.9 0.0
09:35 13.4 60.0 1008.4 4.8 16.1 0.0
09:45 14.2 60.0 1008.6 1.6 16.1 0.0
09:55 14.6 59.0 1008.2 1.6 16.1 0.0
10:05 14.7 58.0 1008.2 8.0 24.1 0.0
10:15 14.9 56.0 1008.1 9.7 24.1 0.0
10:25 14.8 56.0 1008.1 6.4 24.1 0.0
10:35 15.7 54.0 1008.1 4.8 24.1 0.0
10:45 16.1 53.0 1007.8 6.4 24.1 0.0
10:55 16.4 52.0 1007.6 1.6 24.1 0.0
11:05 16.5 51.0 1007.6 4.8 24.1 0.0
11:15 17.0 50.0 1007.5 1.6 24.1 0.0
11:25 16.9 50.0 1007.3 4.8 24.1 0.0
11:35 17.2 50.0 1007.3 1.6 24.1 0.0
11:45 17.5 48.0 1007.0 9.7 24.1 0.0
11:55 18.1 46.0 1006.7 4.8 24.1 0.0
12:05 18.2 47.0 1006.7 4.8 24.1 0.0
12:15 18.7 46.0 1006.5 1.6 24.1 0.0
12:25 19.1 45.0 1006.4 1.6 24.1 0.0
12:35 19.2 44.0 1006.4 4.8 24.1 0.0
12:45 19.1 44.0 1006.2 9.7 24.1 0.0
12:55 19.6 44.0 1006.0 4.8 24.1 0.0
13:05 19.8 43.0 1006.0 4.8 24.1 0.0
13:15 20.4 42.0 1005.8 3.2 24.1 0.0
13:25 20.8 41.0 1005.5 3.2 24.1 0.0
13:35 20.6 41.0 1005.5 3.2 24.1 0.0
13:45 20.7 40.0 1005.4 1.6 24.1 0.0
13:55 21.1 39.0 1005.3 4.8 24.1 0.0
14:05 20.4 40.0 1005.3 4.8 24.1 0.0
14:15 20.9 40.0 1004.9 3.2 24.1 0.0
14:25 20.9 39.0 1004.9 3.2 24.1 0.0
14:35 21.3 39.0 1004.9 4.8 24.1 0.0
14:45 21.4 39.0 1004.5 3.2 24.1 0.0
14:55 21.2 42.0 1004.4 4.8 24.1 0.0
15:05 20.5 45.0 1004.4 4.8 24.1 0.0
15:15 19.5 47.0 1004.3 11.3 24.1 0.0
15:25 18.9 49.0 1004.3 12.9 27.4 0.0
15:35 18.6 50.0 1004.3 11.3 27.4 0.0
15:45 18.3 51.0 1004.3 9.7 27.4 0.0
15:55 18.0 51.0 1004.4 9.7 27.4 0.0
16:05 17.8 52.0 1004.4 4.8 27.4 0.0
16:15 17.3 52.0 1004.4 8.0 27.4 0.0
16:25 17.1 53.0 1004.6 6.4 27.4 0.0
Màxima 21.4 87.0 1010.7 12.9 27.4 0.0
Mínima 6.4 39.0 1004.3
Total 0.0